^^
Saratoga-Weather Station Historical Data
Daily Summary for April 17, 2020 Units:  Both    English   Metric
Daily Weekly Monthly Yearly Custom
  High: Low: Average:
Temperature: 74.1 °F /  23.4 °C 58.5 °F /  14.7 °C 65.3 °F /  18.5 °C
Dew Point: 58.8 °F /  14.9 °C 55.2 °F /  12.9 °C 56.8 °F /  13.8 °C
Humidity: 90% 55% 76%
Wind Speed: 12.1mph /  19.5km/h - 2.4mph /  3.8km/h
Wind Gust: 12mph /  19.3km/h - -
Wind- - WSW
Pressure: 30.1 in /  1020.3 hPa 30.1 in /  1018.6 hPa -
Precipitation: 0 in /  0.0 mm    
Historical Graphs
 
 
Tabular Data for April 17, 2020
Time Temperature Dew Point Pressure Wind Wind Speed Wind Gust Humidity Rainfall Rate (Hourly) solar
00:02 59 °F /  15 °C 56.1 °F /  13.4 °C 30.1in /  1019.3hPa WSW 4mph /  6.4km/h 4mph /  6.4km/h 90% 0in /  0.0mm 0 W/m2
00:07 59 °F /  15 °C 56.1 °F /  13.4 °C 30.1in /  1019.3hPa West 2.9mph /  4.7km/h 4mph /  6.4km/h 90% 0in /  0.0mm 0 W/m2
00:12 59.2 °F /  15.1 °C 56.3 °F /  13.5 °C 30.1in /  1019.3hPa WSW 4.9mph /  7.9km/h 6mph /  9.7km/h 90% 0in /  0.0mm 0 W/m2
00:17 59.2 °F /  15.1 °C 56.3 °F /  13.5 °C 30.1in /  1019.3hPa West 4mph /  6.4km/h 6mph /  9.7km/h 90% 0in /  0.0mm 0 W/m2
00:22 59.2 °F /  15.1 °C 56.3 °F /  13.5 °C 30.1in /  1019.3hPa West 2.9mph /  4.7km/h 5mph /  8km/h 90% 0in /  0.0mm 0 W/m2
00:27 59.2 °F /  15.1 °C 56.3 °F /  13.5 °C 30.1in /  1019.3hPa West 4mph /  6.4km/h 4mph /  6.4km/h 90% 0in /  0.0mm 0 W/m2
00:32 59.2 °F /  15.1 °C 56.3 °F /  13.5 °C 30.1in /  1019.3hPa West 2mph /  3.2km/h 4mph /  6.4km/h 90% 0in /  0.0mm 0 W/m2
00:37 59.2 °F /  15.1 °C 55.9 °F /  13.3 °C 30.1in /  1019.3hPa WNW 0.9mph /  1.4km/h 2mph /  3.2km/h 89% 0in /  0.0mm 0 W/m2
00:42 59.2 °F /  15.1 °C 55.9 °F /  13.3 °C 30.1in /  1019.3hPa West 2mph /  3.2km/h 2mph /  3.2km/h 89% 0in /  0.0mm 0 W/m2
00:47 59.2 °F /  15.1 °C 55.9 °F /  13.3 °C 30.1in /  1019.3hPa West 2.9mph /  4.7km/h 7mph /  11.3km/h 89% 0in /  0.0mm 0 W/m2
00:52 59.2 °F /  15.1 °C 55.9 °F /  13.3 °C 30.1in /  1019.3hPa West 2.9mph /  4.7km/h 5mph /  8km/h 89% 0in /  0.0mm 0 W/m2
00:57 59.2 °F /  15.1 °C 55.9 °F /  13.3 °C 30.1in /  1019.3hPa West 2mph /  3.2km/h 3mph /  4.8km/h 89% 0in /  0.0mm 0 W/m2
01:02 59.2 °F /  15.1 °C 55.9 °F /  13.3 °C 30.1in /  1019.3hPa WNW 0.9mph /  1.4km/h 5mph /  8km/h 89% 0in /  0.0mm 0 W/m2
01:07 59.2 °F /  15.1 °C 55.9 °F /  13.3 °C 30.1in /  1019.3hPa WNW 2.9mph /  4.7km/h 4mph /  6.4km/h 89% 0in /  0.0mm 0 W/m2
01:12 59.2 °F /  15.1 °C 55.9 °F /  13.3 °C 30.1in /  1019.3hPa West 2.9mph /  4.7km/h 6mph /  9.7km/h 89% 0in /  0.0mm 0 W/m2
01:17 59.2 °F /  15.1 °C 55.9 °F /  13.3 °C 30.1in /  1019.0hPa West 2.9mph /  4.7km/h 3mph /  4.8km/h 89% 0in /  0.0mm 0 W/m2
01:22 59.2 °F /  15.1 °C 55.9 °F /  13.3 °C 30.1in /  1019.0hPa WNW 0.9mph /  1.4km/h 6mph /  9.7km/h 89% 0in /  0.0mm 0 W/m2
01:27 59 °F /  15 °C 55.8 °F /  13.2 °C 30.1in /  1019.0hPa West 2mph /  3.2km/h 4mph /  6.4km/h 89% 0in /  0.0mm 0 W/m2
01:32 59 °F /  15 °C 55.8 °F /  13.2 °C 30.1in /  1019.0hPa West 4mph /  6.4km/h 6mph /  9.7km/h 89% 0in /  0.0mm 0 W/m2
01:37 59.2 °F /  15.1 °C 55.9 °F /  13.3 °C 30.1in /  1019.0hPa WNW 2.9mph /  4.7km/h 6mph /  9.7km/h 89% 0in /  0.0mm 0 W/m2
01:42 59.2 °F /  15.1 °C 55.9 °F /  13.3 °C 30.1in /  1019.0hPa WNW 2mph /  3.2km/h 7mph /  11.3km/h 89% 0in /  0.0mm 0 W/m2
01:47 59.2 °F /  15.1 °C 55.9 °F /  13.3 °C 30.1in /  1019.0hPa West 2mph /  3.2km/h 7mph /  11.3km/h 89% 0in /  0.0mm 0 W/m2
01:52 59 °F /  15 °C 55.8 °F /  13.2 °C 30.1in /  1019.0hPa West 4mph /  6.4km/h 6mph /  9.7km/h 89% 0in /  0.0mm 0 W/m2
01:57 59.2 °F /  15.1 °C 55.6 °F /  13.1 °C 30.1in /  1019.0hPa SW 4mph /  6.4km/h 6mph /  9.7km/h 88% 0in /  0.0mm 0 W/m2
02:02 59.2 °F /  15.1 °C 55.6 °F /  13.1 °C 30.1in /  1019.0hPa NW 2mph /  3.2km/h 4mph /  6.4km/h 88% 0in /  0.0mm 0 W/m2
02:07 59.2 °F /  15.1 °C 55.6 °F /  13.1 °C 30.1in /  1019.0hPa West 2.9mph /  4.7km/h 6mph /  9.7km/h 88% 0in /  0.0mm 0 W/m2
02:12 59.2 °F /  15.1 °C 55.6 °F /  13.1 °C 30.1in /  1019.0hPa Calm   2mph /  3.2km/h 88% 0in /  0.0mm 0 W/m2
02:17 59.2 °F /  15.1 °C 55.6 °F /  13.1 °C 30.1in /  1019.0hPa WNW 2.9mph /  4.7km/h 4mph /  6.4km/h 88% 0in /  0.0mm 0 W/m2
02:22 59.2 °F /  15.1 °C 55.6 °F /  13.1 °C 30.1in /  1019.0hPa WNW 2mph /  3.2km/h 3mph /  4.8km/h 88% 0in /  0.0mm 0 W/m2
02:27 59.2 °F /  15.1 °C 55.6 °F /  13.1 °C 30.1in /  1019.0hPa West 2.9mph /  4.7km/h 4mph /  6.4km/h 88% 0in /  0.0mm 0 W/m2
02:32 59 °F /  15 °C 55.4 °F /  13 °C 30.1in /  1019.0hPa West 6mph /  9.7km/h 6mph /  9.7km/h 88% 0in /  0.0mm 0 W/m2
02:37 58.8 °F /  14.9 °C 55.6 °F /  13.1 °C 30.1in /  1019.0hPa West 2.9mph /  4.7km/h 8mph /  12.9km/h 89% 0in /  0.0mm 0 W/m2
02:42 58.8 °F /  14.9 °C 55.6 °F /  13.1 °C 30.1in /  1019.0hPa West 4mph /  6.4km/h 7mph /  11.3km/h 89% 0in /  0.0mm 0 W/m2
02:47 58.6 °F /  14.8 °C 55.4 °F /  13 °C 30.1in /  1019.0hPa WNW 2mph /  3.2km/h 3mph /  4.8km/h 89% 0in /  0.0mm 0 W/m2
02:52 58.6 °F /  14.8 °C 55.4 °F /  13 °C 30.1in /  1019.0hPa WNW 2.9mph /  4.7km/h 4mph /  6.4km/h 89% 0in /  0.0mm 0 W/m2
02:57 58.6 °F /  14.8 °C 55.8 °F /  13.2 °C 30.1in /  1019.0hPa WNW 2.9mph /  4.7km/h 4mph /  6.4km/h 90% 0in /  0.0mm 0 W/m2
03:02 58.6 °F /  14.8 °C 55.4 °F /  13 °C 30.1in /  1019.0hPa NNW 2.9mph /  4.7km/h 6mph /  9.7km/h 89% 0in /  0.0mm 0 W/m2
03:07 58.6 °F /  14.8 °C 55.4 °F /  13 °C 30.1in /  1019.0hPa NW 0.9mph /  1.4km/h 4mph /  6.4km/h 89% 0in /  0.0mm 0 W/m2
03:12 58.6 °F /  14.8 °C 55.4 °F /  13 °C 30.1in /  1019.0hPa WSW 0.9mph /  1.4km/h 4mph /  6.4km/h 89% 0in /  0.0mm 0 W/m2
03:17 58.6 °F /  14.8 °C 55.4 °F /  13 °C 30.1in /  1019.0hPa WNW 0.9mph /  1.4km/h 2mph /  3.2km/h 89% 0in /  0.0mm 0 W/m2
03:22 58.6 °F /  14.8 °C 55.4 °F /  13 °C 30.1in /  1019.0hPa WSW 2mph /  3.2km/h 2mph /  3.2km/h 89% 0in /  0.0mm 0 W/m2
03:27 58.6 °F /  14.8 °C 55.4 °F /  13 °C 30.1in /  1019.0hPa WSW 2mph /  3.2km/h 2mph /  3.2km/h 89% 0in /  0.0mm 0 W/m2
03:32 58.5 °F /  14.7 °C 55.2 °F /  12.9 °C 30.1in /  1019.0hPa WSW 0.9mph /  1.4km/h 2mph /  3.2km/h 89% 0in /  0.0mm 0 W/m2
03:37 58.5 °F /  14.7 °C 55.2 °F /  12.9 °C 30.1in /  1019.0hPa WSW 0.9mph /  1.4km/h 2mph /  3.2km/h 89% 0in /  0.0mm 0 W/m2
03:42 58.5 °F /  14.7 °C 55.2 °F /  12.9 °C 30.1in /  1019.0hPa Calm   1mph /  1.6km/h 89% 0in /  0.0mm 0 W/m2
03:47 58.5 °F /  14.7 °C 55.2 °F /  12.9 °C 30.1in /  1019.0hPa WSW 0.9mph /  1.4km/h 2mph /  3.2km/h 89% 0in /  0.0mm 0 W/m2
03:52 58.5 °F /  14.7 °C 55.2 °F /  12.9 °C 30.1in /  1019.0hPa West 2mph /  3.2km/h 3mph /  4.8km/h 89% 0in /  0.0mm 0 W/m2
03:57 58.5 °F /  14.7 °C 55.2 °F /  12.9 °C 30.1in /  1019.0hPa West 0.9mph /  1.4km/h 3mph /  4.8km/h 89% 0in /  0.0mm 0 W/m2
04:02 58.5 °F /  14.7 °C 55.2 °F /  12.9 °C 30.1in /  1019.0hPa West 0.9mph /  1.4km/h 2mph /  3.2km/h 89% 0in /  0.0mm 0 W/m2
04:07 58.5 °F /  14.7 °C 55.2 °F /  12.9 °C 30.1in /  1019.0hPa West 2.9mph /  4.7km/h 3mph /  4.8km/h 89% 0in /  0.0mm 0 W/m2
04:12 58.5 °F /  14.7 °C 55.2 °F /  12.9 °C 30.1in /  1018.6hPa West 2.9mph /  4.7km/h 3mph /  4.8km/h 89% 0in /  0.0mm 0 W/m2
04:17 58.6 °F /  14.8 °C 55.4 °F /  13 °C 30.1in /  1019.0hPa West 0.9mph /  1.4km/h 2mph /  3.2km/h 89% 0in /  0.0mm 0 W/m2
04:22 58.6 °F /  14.8 °C 55.4 °F /  13 °C 30.1in /  1019.0hPa NW 0.9mph /  1.4km/h 3mph /  4.8km/h 89% 0in /  0.0mm 0 W/m2
04:27 58.6 °F /  14.8 °C 55.4 °F /  13 °C 30.1in /  1019.0hPa WNW 0.9mph /  1.4km/h 2mph /  3.2km/h 89% 0in /  0.0mm 0 W/m2
04:32 58.6 °F /  14.8 °C 55.4 °F /  13 °C 30.1in /  1019.0hPa West 0.9mph /  1.4km/h 2mph /  3.2km/h 89% 0in /  0.0mm 0 W/m2
04:37 58.6 °F /  14.8 °C 55.4 °F /  13 °C 30.1in /  1019.0hPa WSW 2.9mph /  4.7km/h 4mph /  6.4km/h 89% 0in /  0.0mm 0 W/m2
04:42 58.6 °F /  14.8 °C 55.4 °F /  13 °C 30.1in /  1019.0hPa West 0.9mph /  1.4km/h 3mph /  4.8km/h 89% 0in /  0.0mm 0 W/m2
04:47 58.6 °F /  14.8 °C 55.4 °F /  13 °C 30.1in /  1019.0hPa West 2.9mph /  4.7km/h 3mph /  4.8km/h 89% 0in /  0.0mm 0 W/m2
04:52 58.6 °F /  14.8 °C 55.4 °F /  13 °C 30.1in /  1019.0hPa WSW 0.9mph /  1.4km/h 2mph /  3.2km/h 89% 0in /  0.0mm 0 W/m2
04:57 58.6 °F /  14.8 °C 55.4 °F /  13 °C 30.1in /  1019.0hPa West 0.9mph /  1.4km/h 3mph /  4.8km/h 89% 0in /  0.0mm 0 W/m2
05:02 58.6 °F /  14.8 °C 55.4 °F /  13 °C 30.1in /  1019.0hPa West 0.9mph /  1.4km/h 3mph /  4.8km/h 89% 0in /  0.0mm 0 W/m2
05:07 58.6 °F /  14.8 °C 55.4 °F /  13 °C 30.1in /  1019.0hPa West 2mph /  3.2km/h 4mph /  6.4km/h 89% 0in /  0.0mm 0 W/m2
05:12 58.8 °F /  14.9 °C 55.6 °F /  13.1 °C 30.1in /  1019.0hPa West 0.9mph /  1.4km/h 3mph /  4.8km/h 89% 0in /  0.0mm 0 W/m2
05:17 58.8 °F /  14.9 °C 55.6 °F /  13.1 °C 30.1in /  1019.0hPa West 2mph /  3.2km/h 6mph /  9.7km/h 89% 0in /  0.0mm 0 W/m2
05:22 58.8 °F /  14.9 °C 55.2 °F /  12.9 °C 30.1in /  1019.0hPa WSW 0.9mph /  1.4km/h 2mph /  3.2km/h 88% 0in /  0.0mm 0 W/m2
05:27 58.8 °F /  14.9 °C 55.2 °F /  12.9 °C 30.1in /  1019.0hPa WSW 0.9mph /  1.4km/h 4mph /  6.4km/h 88% 0in /  0.0mm 0 W/m2
05:32 58.8 °F /  14.9 °C 55.2 °F /  12.9 °C 30.1in /  1019.0hPa WSW 2mph /  3.2km/h 4mph /  6.4km/h 88% 0in /  0.0mm 0 W/m2
05:37 58.8 °F /  14.9 °C 55.2 °F /  12.9 °C 30.1in /  1019.0hPa West 0.9mph /  1.4km/h 4mph /  6.4km/h 88% 0in /  0.0mm 0 W/m2
05:42 58.8 °F /  14.9 °C 55.6 °F /  13.1 °C 30.1in /  1019.0hPa WSW 2mph /  3.2km/h 4mph /  6.4km/h 89% 0in /  0.0mm 0 W/m2
05:47 58.8 °F /  14.9 °C 55.6 °F /  13.1 °C 30.1in /  1019.0hPa West 2mph /  3.2km/h 4mph /  6.4km/h 89% 0in /  0.0mm 0 W/m2
05:52 58.8 °F /  14.9 °C 55.6 °F /  13.1 °C 30.1in /  1019.0hPa WNW 2.9mph /  4.7km/h 3mph /  4.8km/h 89% 0in /  0.0mm 0 W/m2
05:57 58.8 °F /  14.9 °C 55.6 °F /  13.1 °C 30.1in /  1019.0hPa West 0.9mph /  1.4km/h 4mph /  6.4km/h 89% 0in /  0.0mm 0 W/m2
06:02 58.8 °F /  14.9 °C 55.6 °F /  13.1 °C 30.1in /  1019.3hPa West 2mph /  3.2km/h 2mph /  3.2km/h 89% 0in /  0.0mm 0 W/m2
06:07 58.8 °F /  14.9 °C 55.6 °F /  13.1 °C 30.1in /  1019.0hPa Calm   2mph /  3.2km/h 89% 0in /  0.0mm 5 W/m2
06:12 58.8 °F /  14.9 °C 55.6 °F /  13.1 °C 30.1in /  1019.3hPa NW 2mph /  3.2km/h 5mph /  8km/h 89% 0in /  0.0mm 5 W/m2
06:17 58.8 °F /  14.9 °C 55.6 °F /  13.1 °C 30.1in /  1019.3hPa West 0.9mph /  1.4km/h 3mph /  4.8km/h 89% 0in /  0.0mm 7 W/m2
06:22 58.8 °F /  14.9 °C 55.6 °F /  13.1 °C 30.1in /  1019.3hPa West 2mph /  3.2km/h 4mph /  6.4km/h 89% 0in /  0.0mm 11 W/m2
06:27 58.8 °F /  14.9 °C 55.6 °F /  13.1 °C 30.1in /  1019.3hPa West 2mph /  3.2km/h 2mph /  3.2km/h 89% 0in /  0.0mm 12 W/m2
06:32 58.8 °F /  14.9 °C 55.6 °F /  13.1 °C 30.1in /  1019.3hPa WSW 2mph /  3.2km/h 3mph /  4.8km/h 89% 0in /  0.0mm 14 W/m2
06:37 59 °F /  15 °C 55.8 °F /  13.2 °C 30.1in /  1019.3hPa West 2mph /  3.2km/h 3mph /  4.8km/h 89% 0in /  0.0mm 16 W/m2
06:42 59 °F /  15 °C 55.8 °F /  13.2 °C 30.1in /  1019.3hPa West 2.9mph /  4.7km/h 3mph /  4.8km/h 89% 0in /  0.0mm 18 W/m2
06:47 59 °F /  15 °C 55.8 °F /  13.2 °C 30.1in /  1019.3hPa West 2mph /  3.2km/h 3mph /  4.8km/h 89% 0in /  0.0mm 21 W/m2
06:52 59 °F /  15 °C 55.4 °F /  13 °C 30.1in /  1019.3hPa West 0.9mph /  1.4km/h 2mph /  3.2km/h 88% 0in /  0.0mm 23 W/m2
06:57 59.2 °F /  15.1 °C 55.6 °F /  13.1 °C 30.1in /  1019.3hPa West 2mph /  3.2km/h 3mph /  4.8km/h 88% 0in /  0.0mm 26 W/m2
07:02 59.2 °F /  15.1 °C 55.6 °F /  13.1 °C 30.1in /  1019.3hPa WSW 4.9mph /  7.9km/h 6mph /  9.7km/h 88% 0in /  0.0mm 33 W/m2
07:07 59.2 °F /  15.1 °C 55.6 °F /  13.1 °C 30.1in /  1019.3hPa WNW 2mph /  3.2km/h 4mph /  6.4km/h 88% 0in /  0.0mm 37 W/m2
07:12 59.2 °F /  15.1 °C 55.6 °F /  13.1 °C 30.1in /  1019.3hPa West 2.9mph /  4.7km/h 4mph /  6.4km/h 88% 0in /  0.0mm 39 W/m2
07:17 59.4 °F /  15.2 °C 55.8 °F /  13.2 °C 30.1in /  1019.3hPa West 2.9mph /  4.7km/h 3mph /  4.8km/h 88% 0in /  0.0mm 42 W/m2
07:22 59.4 °F /  15.2 °C 55.8 °F /  13.2 °C 30.1in /  1019.6hPa WSW 4mph /  6.4km/h 6mph /  9.7km/h 88% 0in /  0.0mm 47 W/m2
07:27 59.4 °F /  15.2 °C 55.8 °F /  13.2 °C 30.1in /  1019.6hPa West 4mph /  6.4km/h 4mph /  6.4km/h 88% 0in /  0.0mm 51 W/m2
07:32 59.4 °F /  15.2 °C 55.8 °F /  13.2 °C 30.1in /  1019.6hPa West 2.9mph /  4.7km/h 5mph /  8km/h 88% 0in /  0.0mm 54 W/m2
07:37 59.5 °F /  15.3 °C 55.9 °F /  13.3 °C 30.1in /  1019.6hPa WNW 2mph /  3.2km/h 4mph /  6.4km/h 88% 0in /  0.0mm 62 W/m2
07:42 59.5 °F /  15.3 °C 55.9 °F /  13.3 °C 30.1in /  1019.6hPa West 2.9mph /  4.7km/h 4mph /  6.4km/h 88% 0in /  0.0mm 65 W/m2
07:47 59.7 °F /  15.4 °C 56.1 °F /  13.4 °C 30.1in /  1019.6hPa West 2mph /  3.2km/h 6mph /  9.7km/h 88% 0in /  0.0mm 69 W/m2
07:52 59.7 °F /  15.4 °C 55.8 °F /  13.2 °C 30.1in /  1019.6hPa West 2.9mph /  4.7km/h 4mph /  6.4km/h 87% 0in /  0.0mm 70 W/m2
07:57 59.7 °F /  15.4 °C 55.8 °F /  13.2 °C 30.1in /  1019.6hPa WSW 4.9mph /  7.9km/h 6mph /  9.7km/h 87% 0in /  0.0mm 72 W/m2
08:02 59.9 °F /  15.5 °C 55.9 °F /  13.3 °C 30.1in /  1019.6hPa WNW 4mph /  6.4km/h 4mph /  6.4km/h 87% 0in /  0.0mm 79 W/m2
08:07 60.1 °F /  15.6 °C 56.1 °F /  13.4 °C 30.1in /  1019.6hPa NW 2mph /  3.2km/h 4mph /  6.4km/h 87% 0in /  0.0mm 83 W/m2
08:12 60.1 °F /  15.6 °C 56.1 °F /  13.4 °C 30.1in /  1019.6hPa WNW 2mph /  3.2km/h 5mph /  8km/h 87% 0in /  0.0mm 91 W/m2
08:17 60.1 °F /  15.6 °C 56.1 °F /  13.4 °C 30.1in /  1019.6hPa West 2mph /  3.2km/h 3mph /  4.8km/h 87% 0in /  0.0mm 100 W/m2
08:22 60.3 °F /  15.7 °C 56.3 °F /  13.5 °C 30.1in /  1019.6hPa WNW 0.9mph /  1.4km/h 4mph /  6.4km/h 87% 0in /  0.0mm 111 W/m2
08:27 60.4 °F /  15.8 °C 56.5 °F /  13.6 °C 30.1in /  1019.6hPa West 2.9mph /  4.7km/h 4mph /  6.4km/h 87% 0in /  0.0mm 123 W/m2
08:32 60.4 °F /  15.8 °C 56.3 °F /  13.5 °C 30.1in /  1019.6hPa West 2mph /  3.2km/h 6mph /  9.7km/h 86% 0in /  0.0mm 125 W/m2
08:37 60.6 °F /  15.9 °C 56.5 °F /  13.6 °C 30.1in /  1019.6hPa WNW 2.9mph /  4.7km/h 3mph /  4.8km/h 86% 0in /  0.0mm 128 W/m2
08:42 60.6 °F /  15.9 °C 56.5 °F /  13.6 °C 30.1in /  1019.6hPa West 2.9mph /  4.7km/h 5mph /  8km/h 86% 0in /  0.0mm 142 W/m2
08:47 61 °F /  16.1 °C 56.8 °F /  13.8 °C 30.1in /  1019.6hPa WSW 2.9mph /  4.7km/h 4mph /  6.4km/h 86% 0in /  0.0mm 155 W/m2
08:52 61.2 °F /  16.2 °C 57 °F /  13.9 °C 30.1in /  1019.6hPa West 2mph /  3.2km/h 3mph /  4.8km/h 86% 0in /  0.0mm 153 W/m2
08:57 61.3 °F /  16.3 °C 57.2 °F /  14 °C 30.1in /  1019.6hPa WNW 2mph /  3.2km/h 2mph /  3.2km/h 86% 0in /  0.0mm 165 W/m2
09:02 61.5 °F /  16.4 °C 57 °F /  13.9 °C 30.1in /  1020.0hPa West 2.9mph /  4.7km/h 6mph /  9.7km/h 85% 0in /  0.0mm 179 W/m2
09:07 61.7 °F /  16.5 °C 57.2 °F /  14 °C 30.1in /  1020.0hPa WSW 4mph /  6.4km/h 6mph /  9.7km/h 85% 0in /  0.0mm 186 W/m2
09:12 61.9 °F /  16.6 °C 57 °F /  13.9 °C 30.1in /  1020.0hPa West 0.9mph /  1.4km/h 3mph /  4.8km/h 84% 0in /  0.0mm 183 W/m2
09:17 62.1 °F /  16.7 °C 56.8 °F /  13.8 °C 30.1in /  1020.0hPa WNW 2.9mph /  4.7km/h 6mph /  9.7km/h 83% 0in /  0.0mm 176 W/m2
09:22 62.2 °F /  16.8 °C 56.7 °F /  13.7 °C 30.1in /  1020.0hPa NW 0.9mph /  1.4km/h 2mph /  3.2km/h 82% 0in /  0.0mm 171 W/m2
09:27 62.2 °F /  16.8 °C 56.7 °F /  13.7 °C 30.1in /  1020.0hPa WNW 2mph /  3.2km/h 5mph /  8km/h 82% 0in /  0.0mm 144 W/m2
09:32 62.4 °F /  16.9 °C 56.8 °F /  13.8 °C 30.1in /  1020.0hPa WNW 0.9mph /  1.4km/h 2mph /  3.2km/h 82% 0in /  0.0mm 146 W/m2
09:37 62.6 °F /  17 °C 56.7 °F /  13.7 °C 30.1in /  1020.0hPa NW 2mph /  3.2km/h 5mph /  8km/h 81% 0in /  0.0mm 118 W/m2
09:43 62.8 °F /  17.1 °C 56.8 °F /  13.8 °C 30.1in /  1020.0hPa NW 0.9mph /  1.4km/h 2mph /  3.2km/h 81% 0in /  0.0mm 155 W/m2
09:48 62.8 °F /  17.1 °C 56.8 °F /  13.8 °C 30.1in /  1020.0hPa NW 0.9mph /  1.4km/h 4mph /  6.4km/h 81% 0in /  0.0mm 174 W/m2
09:53 63 °F /  17.2 °C 57 °F /  13.9 °C 30.1in /  1020.0hPa ENE 0.9mph /  1.4km/h 2mph /  3.2km/h 81% 0in /  0.0mm 183 W/m2
09:58 63.1 °F /  17.3 °C 56.8 °F /  13.8 °C 30.1in /  1020.3hPa East 0.9mph /  1.4km/h 3mph /  4.8km/h 80% 0in /  0.0mm 183 W/m2
10:03 63.3 °F /  17.4 °C 56.7 °F /  13.7 °C 30.1in /  1020.3hPa West 0.9mph /  1.4km/h 2mph /  3.2km/h 79% 0in /  0.0mm 209 W/m2
10:08 63.3 °F /  17.4 °C 56.7 °F /  13.7 °C 30.1in /  1020.0hPa NE 2mph /  3.2km/h 3mph /  4.8km/h 79% 0in /  0.0mm 257 W/m2
10:13 63.7 °F /  17.6 °C 57 °F /  13.9 °C 30.1in /  1020.3hPa ESE 4.9mph /  7.9km/h 5mph /  8km/h 79% 0in /  0.0mm 281 W/m2
10:18 63.9 °F /  17.7 °C 57.2 °F /  14 °C 30.1in /  1020.3hPa East 2.9mph /  4.7km/h 6mph /  9.7km/h 79% 0in /  0.0mm 234 W/m2
10:23 63.9 °F /  17.7 °C 57.2 °F /  14 °C 30.1in /  1020.3hPa NNE 0.9mph /  1.4km/h 3mph /  4.8km/h 79% 0in /  0.0mm 197 W/m2
10:28 64 °F /  17.8 °C 57.4 °F /  14.1 °C 30.1in /  1020.0hPa East 0.9mph /  1.4km/h 2mph /  3.2km/h 79% 0in /  0.0mm 207 W/m2
10:33 64.4 °F /  18 °C 57.7 °F /  14.3 °C 30.1in /  1020.3hPa East 2mph /  3.2km/h 4mph /  6.4km/h 79% 0in /  0.0mm 237 W/m2
10:38 64.6 °F /  18.1 °C 57.6 °F /  14.2 °C 30.1in /  1020.3hPa ENE 2mph /  3.2km/h 3mph /  4.8km/h 78% 0in /  0.0mm 246 W/m2
10:43 64.6 °F /  18.1 °C 57.6 °F /  14.2 °C 30.1in /  1020.3hPa ESE 2mph /  3.2km/h 4mph /  6.4km/h 78% 0in /  0.0mm 243 W/m2
10:48 64.8 °F /  18.2 °C 57.4 °F /  14.1 °C 30.1in /  1020.3hPa ENE 2mph /  3.2km/h 3mph /  4.8km/h 77% 0in /  0.0mm 243 W/m2
10:53 64.8 °F /  18.2 °C 57.7 °F /  14.3 °C 30.1in /  1020.3hPa Calm   4mph /  6.4km/h 78% 0in /  0.0mm 244 W/m2
10:58 64.9 °F /  18.3 °C 57.6 °F /  14.2 °C 30.1in /  1020.3hPa ENE 0.9mph /  1.4km/h 2mph /  3.2km/h 77% 0in /  0.0mm 243 W/m2
11:03 65.1 °F /  18.4 °C 57.7 °F /  14.3 °C 30.1in /  1020.3hPa ESE 2mph /  3.2km/h 6mph /  9.7km/h 77% 0in /  0.0mm 267 W/m2
11:08 65.5 °F /  18.6 °C 58.1 °F /  14.5 °C 30.1in /  1020.3hPa ESE 4mph /  6.4km/h 4mph /  6.4km/h 77% 0in /  0.0mm 255 W/m2
11:14 65.7 °F /  18.7 °C 57.9 °F /  14.4 °C 30.1in /  1020.3hPa Calm   3mph /  4.8km/h 76% 0in /  0.0mm 461 W/m2
11:19 66 °F /  18.9 °C 58.3 °F /  14.6 °C 30.1in /  1020.3hPa Calm   1mph /  1.6km/h 76% 0in /  0.0mm 585 W/m2
11:24 66.6 °F /  19.2 °C 58.5 °F /  14.7 °C 30.1in /  1020.3hPa ESE 2mph /  3.2km/h 3mph /  4.8km/h 75% 0in /  0.0mm 512 W/m2
11:29 66.7 °F /  19.3 °C 58.1 °F /  14.5 °C 30.1in /  1020.3hPa ENE 0.9mph /  1.4km/h 2mph /  3.2km/h 74% 0in /  0.0mm 473 W/m2
11:34 66.9 °F /  19.4 °C 57.9 °F /  14.4 °C 30.1in /  1020.3hPa NE 0.9mph /  1.4km/h 4mph /  6.4km/h 73% 0in /  0.0mm 476 W/m2
11:39 66.9 °F /  19.4 °C 57.6 °F /  14.2 °C 30.1in /  1020.0hPa ENE 0.9mph /  1.4km/h 1mph /  1.6km/h 72% 0in /  0.0mm 526 W/m2
11:44 67.1 °F /  19.5 °C 57.7 °F /  14.3 °C 30.1in /  1020.0hPa East 2.9mph /  4.7km/h 5mph /  8km/h 72% 0in /  0.0mm 547 W/m2
11:49 67.3 °F /  19.6 °C 57.9 °F /  14.4 °C 30.1in /  1020.0hPa NE 2mph /  3.2km/h 3mph /  4.8km/h 72% 0in /  0.0mm 538 W/m2
11:54 67.6 °F /  19.8 °C 57.9 °F /  14.4 °C 30.1in /  1020.0hPa NE 4mph /  6.4km/h 5mph /  8km/h 71% 0in /  0.0mm 513 W/m2
11:59 67.8 °F /  19.9 °C 57.2 °F /  14 °C 30.1in /  1020.0hPa NE 0.9mph /  1.4km/h 1mph /  1.6km/h 69% 0in /  0.0mm 754 W/m2
12:04 68.2 °F /  20.1 °C 58.8 °F /  14.9 °C 30.1in /  1020.0hPa South 2mph /  3.2km/h 3mph /  4.8km/h 72% 0in /  0.0mm 497 W/m2
12:09 69.3 °F /  20.7 °C 58.6 °F /  14.8 °C 30.1in /  1020.0hPa ESE 2.9mph /  4.7km/h 7mph /  11.3km/h 69% 0in /  0.0mm 1058 W/m2
12:14 69.6 °F /  20.9 °C 57.4 °F /  14.1 °C 30.1in /  1020.0hPa East 2mph /  3.2km/h 3mph /  4.8km/h 65% 0in /  0.0mm 1030 W/m2
12:19 70 °F /  21.1 °C 57.2 °F /  14 °C 30.1in /  1020.0hPa ESE 2.9mph /  4.7km/h 3mph /  4.8km/h 64% 0in /  0.0mm 243 W/m2
12:24 69.4 °F /  20.8 °C 57.2 °F /  14 °C 30.1in /  1020.0hPa ENE 0.9mph /  1.4km/h 2mph /  3.2km/h 65% 0in /  0.0mm 239 W/m2
12:29 69.1 °F /  20.6 °C 57.2 °F /  14 °C 30.1in /  1020.0hPa ESE 2mph /  3.2km/h 3mph /  4.8km/h 66% 0in /  0.0mm 283 W/m2
12:34 68.9 °F /  20.5 °C 57 °F /  13.9 °C 30.1in /  1020.0hPa ENE 0.9mph /  1.4km/h 3mph /  4.8km/h 66% 0in /  0.0mm 209 W/m2
12:39 68.5 °F /  20.3 °C 57.2 °F /  14 °C 30.1in /  1020.0hPa West 2.9mph /  4.7km/h 3mph /  4.8km/h 67% 0in /  0.0mm 156 W/m2
12:44 68.2 °F /  20.1 °C 57.2 °F /  14 °C 30.1in /  1020.0hPa NW 2mph /  3.2km/h 4mph /  6.4km/h 68% 0in /  0.0mm 132 W/m2
12:49 67.8 °F /  19.9 °C 57.2 °F /  14 °C 30.1in /  1020.0hPa North 2mph /  3.2km/h 3mph /  4.8km/h 69% 0in /  0.0mm 155 W/m2
12:54 67.8 °F /  19.9 °C 57.2 °F /  14 °C 30.1in /  1020.0hPa WNW 2mph /  3.2km/h 3mph /  4.8km/h 69% 0in /  0.0mm 185 W/m2
12:59 67.8 °F /  19.9 °C 57.2 °F /  14 °C 30.1in /  1020.0hPa North 2mph /  3.2km/h 3mph /  4.8km/h 69% 0in /  0.0mm 195 W/m2
13:04 67.6 °F /  19.8 °C 57.6 °F /  14.2 °C 30.1in /  1020.0hPa West 2.9mph /  4.7km/h 4mph /  6.4km/h 70% 0in /  0.0mm 265 W/m2
13:09 67.8 °F /  19.9 °C 57.7 °F /  14.3 °C 30.1in /  1020.0hPa West 0.9mph /  1.4km/h 3mph /  4.8km/h 70% 0in /  0.0mm 427 W/m2
13:14 68.4 °F /  20.2 °C 57.7 °F /  14.3 °C 30.1in /  1020.0hPa ENE 0.9mph /  1.4km/h 4mph /  6.4km/h 69% 0in /  0.0mm 919 W/m2
13:19 68.9 °F /  20.5 °C 57.6 °F /  14.2 °C 30.1in /  1020.0hPa Calm   4mph /  6.4km/h 67% 0in /  0.0mm 1058 W/m2
13:24 69.4 °F /  20.8 °C 57.6 °F /  14.2 °C 30.1in /  1020.0hPa West 2.9mph /  4.7km/h 4mph /  6.4km/h 66% 0in /  0.0mm 701 W/m2
13:29 69.4 °F /  20.8 °C 57.6 °F /  14.2 °C 30.1in /  1020.0hPa WNW 2mph /  3.2km/h 2mph /  3.2km/h 66% 0in /  0.0mm 320 W/m2
13:34 69.6 °F /  20.9 °C 57.7 °F /  14.3 °C 30.1in /  1020.0hPa NW 2.9mph /  4.7km/h 6mph /  9.7km/h 66% 0in /  0.0mm 397 W/m2
13:39 70.2 °F /  21.2 °C 57.9 °F /  14.4 °C 30.1in /  1020.0hPa NW 0.9mph /  1.4km/h 6mph /  9.7km/h 65% 0in /  0.0mm 1055 W/m2
13:44 70.3 °F /  21.3 °C 57.6 °F /  14.2 °C 30.1in /  1020.0hPa West 2mph /  3.2km/h 4mph /  6.4km/h 64% 0in /  0.0mm 403 W/m2
13:49 70.2 °F /  21.2 °C 57.9 °F /  14.4 °C 30.1in /  1019.6hPa NW 2mph /  3.2km/h 7mph /  11.3km/h 65% 0in /  0.0mm 364 W/m2
13:54 70.5 °F /  21.4 °C 58.1 °F /  14.5 °C 30.1in /  1019.6hPa NNW 4.9mph /  7.9km/h 6mph /  9.7km/h 65% 0in /  0.0mm 998 W/m2
13:59 70.9 °F /  21.6 °C 57.7 °F /  14.3 °C 30.1in /  1019.6hPa NE 2mph /  3.2km/h 3mph /  4.8km/h 63% 0in /  0.0mm 960 W/m2
14:04 71.4 °F /  21.9 °C 57.7 °F /  14.3 °C 30.1in /  1019.6hPa West 2.9mph /  4.7km/h 3mph /  4.8km/h 62% 0in /  0.0mm 976 W/m2
14:09 72 °F /  22.2 °C 57.7 °F /  14.3 °C 30.1in /  1019.6hPa NW 2mph /  3.2km/h 7mph /  11.3km/h 61% 0in /  0.0mm 991 W/m2
14:14 72.3 °F /  22.4 °C 57.7 °F /  14.3 °C 30.1in /  1019.6hPa WNW 2mph /  3.2km/h 3mph /  4.8km/h 60% 0in /  0.0mm 1013 W/m2
14:19 72.9 °F /  22.7 °C 57.7 °F /  14.3 °C 30.1in /  1019.6hPa NE 2mph /  3.2km/h 4mph /  6.4km/h 59% 0in /  0.0mm 1035 W/m2
14:24 72.7 °F /  22.6 °C 57.6 °F /  14.2 °C 30.1in /  1019.6hPa North 4mph /  6.4km/h 7mph /  11.3km/h 59% 0in /  0.0mm 1035 W/m2
14:29 72 °F /  22.2 °C 56.8 °F /  13.8 °C 30.1in /  1019.6hPa NW 6.9mph /  11.1km/h 9mph /  14.5km/h 59% 0in /  0.0mm 204 W/m2
14:34 71.2 °F /  21.8 °C 56.7 °F /  13.7 °C 30.1in /  1019.6hPa NW 0.9mph /  1.4km/h 5mph /  8km/h 60% 0in /  0.0mm 272 W/m2
14:39 71.2 °F /  21.8 °C 56.7 °F /  13.7 °C 30.1in /  1019.6hPa SE 2mph /  3.2km/h 3mph /  4.8km/h 60% 0in /  0.0mm 949 W/m2
14:44 71.8 °F /  22.1 °C 57.2 °F /  14 °C 30.1in /  1019.6hPa WNW 4.9mph /  7.9km/h 7mph /  11.3km/h 60% 0in /  0.0mm 962 W/m2
14:49 72 °F /  22.2 °C 56.3 °F /  13.5 °C 30.1in /  1019.3hPa WNW 4mph /  6.4km/h 4mph /  6.4km/h 58% 0in /  0.0mm 327 W/m2
14:54 72.1 °F /  22.3 °C 57 °F /  13.9 °C 30.1in /  1019.3hPa WSW 2.9mph /  4.7km/h 9mph /  14.5km/h 59% 0in /  0.0mm 1051 W/m2
14:59 72.7 °F /  22.6 °C 57.6 °F /  14.2 °C 30.1in /  1019.3hPa WSW 6.9mph /  11.1km/h 8mph /  12.9km/h 59% 0in /  0.0mm 376 W/m2
15:04 72.3 °F /  22.4 °C 56.3 °F /  13.5 °C 30.1in /  1019.3hPa SW 4mph /  6.4km/h 7mph /  11.3km/h 57% 0in /  0.0mm 359 W/m2
15:09 72.1 °F /  22.3 °C 56.1 °F /  13.4 °C 30.1in /  1019.3hPa NW 2mph /  3.2km/h 5mph /  8km/h 57% 0in /  0.0mm 359 W/m2
15:14 72.3 °F /  22.4 °C 56.3 °F /  13.5 °C 30.1in /  1019.3hPa WNW 4.9mph /  7.9km/h 7mph /  11.3km/h 57% 0in /  0.0mm 338 W/m2
15:19 72.1 °F /  22.3 °C 57 °F /  13.9 °C 30.1in /  1019.3hPa WSW 6.9mph /  11.1km/h 7mph /  11.3km/h 59% 0in /  0.0mm 304 W/m2
15:24 72.1 °F /  22.3 °C 57.6 °F /  14.2 °C 30.1in /  1019.3hPa NNW 0.9mph /  1.4km/h 5mph /  8km/h 60% 0in /  0.0mm 288 W/m2
15:29 72.3 °F /  22.4 °C 57.2 °F /  14 °C 30.1in /  1019.3hPa WNW 2.9mph /  4.7km/h 7mph /  11.3km/h 59% 0in /  0.0mm 860 W/m2
15:34 72.9 °F /  22.7 °C 57.2 °F /  14 °C 30.1in /  1019.3hPa WNW 2.9mph /  4.7km/h 7mph /  11.3km/h 58% 0in /  0.0mm 353 W/m2
15:39 72.9 °F /  22.7 °C 56.7 °F /  13.7 °C 30.1in /  1019.3hPa Calm   10mph /  16.1km/h 57% 0in /  0.0mm 434 W/m2
15:44 72.9 °F /  22.7 °C 56.7 °F /  13.7 °C 30.1in /  1019.3hPa West 2.9mph /  4.7km/h 12mph /  19.3km/h 57% 0in /  0.0mm 352 W/m2
15:49 72.9 °F /  22.7 °C 56.7 °F /  13.7 °C 30.1in /  1019.3hPa West 4mph /  6.4km/h 4mph /  6.4km/h 57% 0in /  0.0mm 325 W/m2
15:54 72.7 °F /  22.6 °C 56.5 °F /  13.6 °C 30.1in /  1019.3hPa WNW 2mph /  3.2km/h 8mph /  12.9km/h 57% 0in /  0.0mm 315 W/m2
15:59 72.5 °F /  22.5 °C 56.5 °F /  13.6 °C 30.1in /  1019.3hPa West 6mph /  9.7km/h 7mph /  11.3km/h 57% 0in /  0.0mm 287 W/m2
16:04 72.3 °F /  22.4 °C 56.3 °F /  13.5 °C 30.1in /  1019.3hPa NW 2mph /  3.2km/h 8mph /  12.9km/h 57% 0in /  0.0mm 258 W/m2
16:09 72.7 °F /  22.6 °C 56.1 °F /  13.4 °C 30.1in /  1019.3hPa West 4mph /  6.4km/h 9mph /  14.5km/h 56% 0in /  0.0mm 334 W/m2
16:14 72.9 °F /  22.7 °C 55.8 °F /  13.2 °C 30.1in /  1019.3hPa West 6mph /  9.7km/h 6mph /  9.7km/h 55% 0in /  0.0mm 353 W/m2
16:19 72.9 °F /  22.7 °C 57.2 °F /  14 °C 30.1in /  1019.3hPa WSW 6mph /  9.7km/h 7mph /  11.3km/h 58% 0in /  0.0mm 281 W/m2
16:24 72.9 °F /  22.7 °C 57.2 °F /  14 °C 30.1in /  1019.0hPa NNW 4mph /  6.4km/h 9mph /  14.5km/h 58% 0in /  0.0mm 360 W/m2
16:29 72.9 °F /  22.7 °C 56.7 °F /  13.7 °C 30.1in /  1019.3hPa West 2mph /  3.2km/h 6mph /  9.7km/h 57% 0in /  0.0mm 438 W/m2
16:34 73.4 °F /  23 °C 57.2 °F /  14 °C 30.1in /  1019.3hPa NW 4mph /  6.4km/h 4mph /  6.4km/h 57% 0in /  0.0mm 513 W/m2
16:39 73.9 °F /  23.3 °C 57.2 °F /  14 °C 30.1in /  1019.3hPa WNW 4mph /  6.4km/h 10mph /  16.1km/h 56% 0in /  0.0mm 626 W/m2
16:44 73.9 °F /  23.3 °C 57.2 °F /  14 °C 30.1in /  1019.3hPa West 2.9mph /  4.7km/h 9mph /  14.5km/h 56% 0in /  0.0mm 478 W/m2
16:49 73.6 °F /  23.1 °C 57.9 °F /  14.4 °C 30.1in /  1019.3hPa WNW 2.9mph /  4.7km/h 9mph /  14.5km/h 58% 0in /  0.0mm 352 W/m2
16:54 73.2 °F /  22.9 °C 57 °F /  13.9 °C 30.1in /  1019.3hPa WNW 4mph /  6.4km/h 6mph /  9.7km/h 57% 0in /  0.0mm 431 W/m2
16:59 73.2 °F /  22.9 °C 57.6 °F /  14.2 °C 30.1in /  1019.3hPa West 2.9mph /  4.7km/h 11mph /  17.7km/h 58% 0in /  0.0mm 483 W/m2
17:04 73.8 °F /  23.2 °C 58.5 °F /  14.7 °C 30.1in /  1019.3hPa WSW 2.9mph /  4.7km/h 9mph /  14.5km/h 59% 0in /  0.0mm 916 W/m2
17:09 74.1 °F /  23.4 °C 58.5 °F /  14.7 °C 30.1in /  1019.3hPa WNW 8.9mph /  14.3km/h 10mph /  16.1km/h 58% 0in /  0.0mm 701 W/m2
17:14 74.1 °F /  23.4 °C 58.5 °F /  14.7 °C 30.1in /  1019.3hPa WSW 12.1mph /  19.5km/h 12mph /  19.3km/h 58% 0in /  0.0mm 499 W/m2
17:20 73.6 °F /  23.1 °C 58.3 °F /  14.6 °C 30.1in /  1019.3hPa West 4mph /  6.4km/h 10mph /  16.1km/h 59% 0in /  0.0mm 350 W/m2
17:25 73.2 °F /  22.9 °C 58.1 °F /  14.5 °C 30.1in /  1019.0hPa WNW 2.9mph /  4.7km/h 10mph /  16.1km/h 59% 0in /  0.0mm 334 W/m2
17:30 72.9 °F /  22.7 °C 58.1 °F /  14.5 °C 30.1in /  1019.0hPa WSW 4.9mph /  7.9km/h 12mph /  19.3km/h 60% 0in /  0.0mm 304 W/m2
17:35 72.5 °F /  22.5 °C 57.7 °F /  14.3 °C 30.1in /  1019.0hPa NNW 4mph /  6.4km/h 10mph /  16.1km/h 60% 0in /  0.0mm 255 W/m2
17:40 72.7 °F /  22.6 °C 57.6 °F /  14.2 °C 30.1in /  1019.0hPa NNW 4mph /  6.4km/h 4mph /  6.4km/h 59% 0in /  0.0mm 216 W/m2
17:45 72.7 °F /  22.6 °C 57.9 °F /  14.4 °C 30.1in /  1019.0hPa West 6.9mph /  11.1km/h 10mph /  16.1km/h 60% 0in /  0.0mm 272 W/m2
17:50 72.3 °F /  22.4 °C 57.7 °F /  14.3 °C 30.1in /  1019.0hPa WNW 2mph /  3.2km/h 11mph /  17.7km/h 60% 0in /  0.0mm 471 W/m2
17:55 72.1 °F /  22.3 °C 57.6 °F /  14.2 °C 30.1in /  1019.0hPa WNW 2.9mph /  4.7km/h 8mph /  12.9km/h 60% 0in /  0.0mm 230 W/m2
18:00 72.1 °F /  22.3 °C 57.6 °F /  14.2 °C 30.1in /  1019.0hPa WSW 4mph /  6.4km/h 8mph /  12.9km/h 60% 0in /  0.0mm 253 W/m2
18:05 72.1 °F /  22.3 °C 57.6 °F /  14.2 °C 30.1in /  1019.0hPa WNW 4mph /  6.4km/h 12mph /  19.3km/h 60% 0in /  0.0mm 230 W/m2
18:10 72 °F /  22.2 °C 57.4 °F /  14.1 °C 30.1in /  1019.0hPa WNW 4mph /  6.4km/h 8mph /  12.9km/h 60% 0in /  0.0mm 209 W/m2
18:15 72 °F /  22.2 °C 57.7 °F /  14.3 °C 30.1in /  1019.0hPa NNW 4mph /  6.4km/h 12mph /  19.3km/h 61% 0in /  0.0mm 213 W/m2
18:20 72 °F /  22.2 °C 57.4 °F /  14.1 °C 30.1in /  1019.0hPa NW 10.1mph /  16.3km/h 10mph /  16.1km/h 60% 0in /  0.0mm 221 W/m2
18:25 72 °F /  22.2 °C 57.4 °F /  14.1 °C 30.1in /  1019.0hPa North 4mph /  6.4km/h 6mph /  9.7km/h 60% 0in /  0.0mm 264 W/m2
18:30 72.3 °F /  22.4 °C 57.2 °F /  14 °C 30.1in /  1019.0hPa NNW 4.9mph /  7.9km/h 10mph /  16.1km/h 59% 0in /  0.0mm 461 W/m2
18:35 72.7 °F /  22.6 °C 57.6 °F /  14.2 °C 30.1in /  1019.0hPa NW 2mph /  3.2km/h 5mph /  8km/h 59% 0in /  0.0mm 271 W/m2
18:40 72.9 °F /  22.7 °C 57.2 °F /  14 °C 30.1in /  1019.0hPa NNW 4mph /  6.4km/h 8mph /  12.9km/h 58% 0in /  0.0mm 257 W/m2
18:45 72.9 °F /  22.7 °C 57.7 °F /  14.3 °C 30.1in /  1019.0hPa NW 4mph /  6.4km/h 4mph /  6.4km/h 59% 0in /  0.0mm 308 W/m2
18:50 73.2 °F /  22.9 °C 57.6 °F /  14.2 °C 30.1in /  1019.0hPa NNW 4mph /  6.4km/h 7mph /  11.3km/h 58% 0in /  0.0mm 374 W/m2
18:55 73.8 °F /  23.2 °C 58.1 °F /  14.5 °C 30.1in /  1019.0hPa WSW 2.9mph /  4.7km/h 4mph /  6.4km/h 58% 0in /  0.0mm 418 W/m2
19:00 73.6 °F /  23.1 °C 57.4 °F /  14.1 °C 30.1in /  1019.0hPa West 2.9mph /  4.7km/h 7mph /  11.3km/h 57% 0in /  0.0mm 171 W/m2
19:05 73 °F /  22.8 °C 57.9 °F /  14.4 °C 30.1in /  1019.0hPa West 6mph /  9.7km/h 7mph /  11.3km/h 59% 0in /  0.0mm 151 W/m2
19:10 72.3 °F /  22.4 °C 57.7 °F /  14.3 °C 30.1in /  1019.0hPa NW 2mph /  3.2km/h 5mph /  8km/h 60% 0in /  0.0mm 125 W/m2
19:15 72 °F /  22.2 °C 57.7 °F /  14.3 °C 30.1in /  1019.0hPa WNW 4mph /  6.4km/h 7mph /  11.3km/h 61% 0in /  0.0mm 97 W/m2
19:20 71.4 °F /  21.9 °C 57.7 °F /  14.3 °C 30.1in /  1019.0hPa West 4mph /  6.4km/h 6mph /  9.7km/h 62% 0in /  0.0mm 70 W/m2
19:25 71.2 °F /  21.8 °C 57.9 °F /  14.4 °C 30.1in /  1019.0hPa NW 8mph /  12.9km/h 8mph /  12.9km/h 63% 0in /  0.0mm 67 W/m2
19:30 71.1 °F /  21.7 °C 58.3 °F /  14.6 °C 30.1in /  1019.0hPa West 4mph /  6.4km/h 5mph /  8km/h 64% 0in /  0.0mm 65 W/m2
19:35 70.9 °F /  21.6 °C 58.1 °F /  14.5 °C 30.1in /  1019.0hPa WNW 4mph /  6.4km/h 7mph /  11.3km/h 64% 0in /  0.0mm 65 W/m2
19:40 70.9 °F /  21.6 °C 58.5 °F /  14.7 °C 30.1in /  1019.0hPa NNW 0.9mph /  1.4km/h 2mph /  3.2km/h 65% 0in /  0.0mm 70 W/m2
19:45 70.9 °F /  21.6 °C 58.5 °F /  14.7 °C 30.1in /  1019.0hPa NW 0.9mph /  1.4km/h 3mph /  4.8km/h 65% 0in /  0.0mm 70 W/m2
19:50 70.9 °F /  21.6 °C 58.5 °F /  14.7 °C 30.1in /  1019.0hPa West 2.9mph /  4.7km/h 4mph /  6.4km/h 65% 0in /  0.0mm 58 W/m2
19:55 70.7 °F /  21.5 °C 58.3 °F /  14.6 °C 30.1in /  1019.0hPa NW 0.9mph /  1.4km/h 3mph /  4.8km/h 65% 0in /  0.0mm 56 W/m2
20:01 70.7 °F /  21.5 °C 58.3 °F /  14.6 °C 30.1in /  1019.0hPa WNW 0.9mph /  1.4km/h 4mph /  6.4km/h 65% 0in /  0.0mm 47 W/m2
20:06 70.7 °F /  21.5 °C 58.3 °F /  14.6 °C 30.1in /  1019.0hPa Calm   2mph /  3.2km/h 65% 0in /  0.0mm 53 W/m2
20:11 70.7 °F /  21.5 °C 58.3 °F /  14.6 °C 30.1in /  1019.0hPa West 2mph /  3.2km/h 3mph /  4.8km/h 65% 0in /  0.0mm 49 W/m2
20:16 70.7 °F /  21.5 °C 58.3 °F /  14.6 °C 30.1in /  1019.0hPa WNW 0.9mph /  1.4km/h 1mph /  1.6km/h 65% 0in /  0.0mm 44 W/m2
20:21 70.5 °F /  21.4 °C 58.1 °F /  14.5 °C 30.1in /  1019.0hPa WNW 0.9mph /  1.4km/h 2mph /  3.2km/h 65% 0in /  0.0mm 37 W/m2
20:26 70.5 °F /  21.4 °C 58.1 °F /  14.5 °C 30.1in /  1019.0hPa NNW 2mph /  3.2km/h 2mph /  3.2km/h 65% 0in /  0.0mm 28 W/m2
20:31 70.5 °F /  21.4 °C 58.1 °F /  14.5 °C 30.1in /  1019.0hPa NNW 0.9mph /  1.4km/h 2mph /  3.2km/h 65% 0in /  0.0mm 23 W/m2
20:36 70.3 °F /  21.3 °C 58.1 °F /  14.5 °C 30.1in /  1019.0hPa WNW 2mph /  3.2km/h 3mph /  4.8km/h 65% 0in /  0.0mm 21 W/m2
20:41 70.2 °F /  21.2 °C 58.3 °F /  14.6 °C 30.1in /  1019.0hPa North 0.9mph /  1.4km/h 1mph /  1.6km/h 66% 0in /  0.0mm 19 W/m2
20:46 70 °F /  21.1 °C 58.1 °F /  14.5 °C 30.1in /  1019.0hPa Calm   1mph /  1.6km/h 66% 0in /  0.0mm 18 W/m2
20:51 69.8 °F /  21 °C 58.3 °F /  14.6 °C 30.1in /  1019.0hPa NW 0.9mph /  1.4km/h 2mph /  3.2km/h 67% 0in /  0.0mm 14 W/m2
20:56 69.4 °F /  20.8 °C 57.9 °F /  14.4 °C 30.1in /  1019.0hPa WNW 0.9mph /  1.4km/h 2mph /  3.2km/h 67% 0in /  0.0mm 14 W/m2
21:01 69.1 °F /  20.6 °C 58.5 °F /  14.7 °C 30.1in /  1019.0hPa Calm   2mph /  3.2km/h 69% 0in /  0.0mm 12 W/m2
21:06 68.5 °F /  20.3 °C 57.9 °F /  14.4 °C 30.1in /  1019.0hPa WNW 0.9mph /  1.4km/h 2mph /  3.2km/h 69% 0in /  0.0mm 11 W/m2
21:11 68.4 °F /  20.2 °C 58.3 °F /  14.6 °C 30.1in /  1019.0hPa WNW 0.9mph /  1.4km/h 1mph /  1.6km/h 70% 0in /  0.0mm 11 W/m2
21:16 67.8 °F /  19.9 °C 58.1 °F /  14.5 °C 30.1in /  1019.0hPa West 2mph /  3.2km/h 3mph /  4.8km/h 71% 0in /  0.0mm 9 W/m2
21:21 67.5 °F /  19.7 °C 58.1 °F /  14.5 °C 30.1in /  1019.0hPa Calm   2mph /  3.2km/h 72% 0in /  0.0mm 7 W/m2
21:26 67.3 °F /  19.6 °C 57.9 °F /  14.4 °C 30.1in /  1019.0hPa WSW 2mph /  3.2km/h 2mph /  3.2km/h 72% 0in /  0.0mm 5 W/m2
21:31 67.1 °F /  19.5 °C 58.1 °F /  14.5 °C 30.1in /  1019.0hPa West 0.9mph /  1.4km/h 3mph /  4.8km/h 73% 0in /  0.0mm 5 W/m2
21:36 66.9 °F /  19.4 °C 57.9 °F /  14.4 °C 30.1in /  1019.0hPa West 2mph /  3.2km/h 3mph /  4.8km/h 73% 0in /  0.0mm 0 W/m2
21:41 66.7 °F /  19.3 °C 57.7 °F /  14.3 °C 30.1in /  1019.3hPa WSW 0.9mph /  1.4km/h 4mph /  6.4km/h 73% 0in /  0.0mm 0 W/m2
21:46 66.7 °F /  19.3 °C 58.1 °F /  14.5 °C 30.1in /  1019.0hPa WSW 2mph /  3.2km/h 3mph /  4.8km/h 74% 0in /  0.0mm 0 W/m2
21:51 66.7 °F /  19.3 °C 58.1 °F /  14.5 °C 30.1in /  1019.3hPa West 2.9mph /  4.7km/h 4mph /  6.4km/h 74% 0in /  0.0mm 0 W/m2
21:56 66.6 °F /  19.2 °C 58.1 °F /  14.5 °C 30.1in /  1019.3hPa WSW 2mph /  3.2km/h 4mph /  6.4km/h 74% 0in /  0.0mm 0 W/m2
22:01 66.4 °F /  19.1 °C 57.9 °F /  14.4 °C 30.1in /  1019.3hPa West 0.9mph /  1.4km/h 4mph /  6.4km/h 74% 0in /  0.0mm 0 W/m2
22:06 66.4 °F /  19.1 °C 58.3 °F /  14.6 °C 30.1in /  1019.3hPa West 0.9mph /  1.4km/h 3mph /  4.8km/h 75% 0in /  0.0mm 0 W/m2
22:11 66.2 °F /  19 °C 58.1 °F /  14.5 °C 30.1in /  1019.3hPa West 2mph /  3.2km/h 4mph /  6.4km/h 75% 0in /  0.0mm 0 W/m2
22:16 66 °F /  18.9 °C 57.9 °F /  14.4 °C 30.1in /  1019.3hPa WSW 0.9mph /  1.4km/h 2mph /  3.2km/h 75% 0in /  0.0mm 0 W/m2
22:21 65.8 °F /  18.8 °C 58.1 °F /  14.5 °C 30.1in /  1019.6hPa West 2mph /  3.2km/h 3mph /  4.8km/h 76% 0in /  0.0mm 0 W/m2
22:26 65.7 °F /  18.7 °C 57.9 °F /  14.4 °C 30.1in /  1019.6hPa WSW 2mph /  3.2km/h 3mph /  4.8km/h 76% 0in /  0.0mm 0 W/m2
22:31 65.5 °F /  18.6 °C 58.1 °F /  14.5 °C 30.1in /  1019.6hPa WSW 0.9mph /  1.4km/h 4mph /  6.4km/h 77% 0in /  0.0mm 0 W/m2
22:36 65.3 °F /  18.5 °C 57.9 °F /  14.4 °C 30.1in /  1019.6hPa West 2mph /  3.2km/h 3mph /  4.8km/h 77% 0in /  0.0mm 0 W/m2
22:41 65.1 °F /  18.4 °C 57.7 °F /  14.3 °C 30.1in /  1019.6hPa SW 2.9mph /  4.7km/h 4mph /  6.4km/h 77% 0in /  0.0mm 0 W/m2
22:46 65.1 °F /  18.4 °C 57.7 °F /  14.3 °C 30.1in /  1019.6hPa WSW 0.9mph /  1.4km/h 3mph /  4.8km/h 77% 0in /  0.0mm 0 W/m2
22:51 65.1 °F /  18.4 °C 57.7 °F /  14.3 °C 30.1in /  1019.6hPa WSW 0.9mph /  1.4km/h 4mph /  6.4km/h 77% 0in /  0.0mm 0 W/m2
22:56 65.1 °F /  18.4 °C 57.7 °F /  14.3 °C 30.1in /  1019.6hPa West 2mph /  3.2km/h 3mph /  4.8km/h 77% 0in /  0.0mm 0 W/m2
23:01 65.1 °F /  18.4 °C 57.7 °F /  14.3 °C 30.1in /  1019.6hPa West 2mph /  3.2km/h 3mph /  4.8km/h 77% 0in /  0.0mm 0 W/m2
23:06 64.9 °F /  18.3 °C 57.6 °F /  14.2 °C 30.1in /  1019.6hPa WSW 2.9mph /  4.7km/h 3mph /  4.8km/h 77% 0in /  0.0mm 0 W/m2
23:11 64.9 °F /  18.3 °C 57.9 °F /  14.4 °C 30.1in /  1019.6hPa WSW 0.9mph /  1.4km/h 2mph /  3.2km/h 78% 0in /  0.0mm 0 W/m2
23:16 64.8 °F /  18.2 °C 57.7 °F /  14.3 °C 30.1in /  1019.6hPa Calm   2mph /  3.2km/h 78% 0in /  0.0mm 0 W/m2
23:21 64.8 °F /  18.2 °C 57.7 °F /  14.3 °C 30.1in /  1019.6hPa Calm   2mph /  3.2km/h 78% 0in /  0.0mm 0 W/m2
23:26 64.4 °F /  18 °C 57.7 °F /  14.3 °C 30.1in /  1019.6hPa Calm   2mph /  3.2km/h 79% 0in /  0.0mm 0 W/m2
23:31 64.2 °F /  17.9 °C 57.6 °F /  14.2 °C 30.1in /  1019.6hPa SW 0.9mph /  1.4km/h 1mph /  1.6km/h 79% 0in /  0.0mm 0 W/m2
23:36 63.9 °F /  17.7 °C 57.6 °F /  14.2 °C 30.1in /  1019.6hPa Calm     80% 0in /  0.0mm 0 W/m2
23:41 63.7 °F /  17.6 °C 57.4 °F /  14.1 °C 30.1in /  1019.6hPa Calm     80% 0in /  0.0mm 0 W/m2
23:46 63.3 °F /  17.4 °C 57 °F /  13.9 °C 30.1in /  1019.6hPa Calm     80% 0in /  0.0mm 0 W/m2
23:51 63 °F /  17.2 °C 57 °F /  13.9 °C 30.1in /  1019.6hPa Calm     81% 0in /  0.0mm 0 W/m2
23:56 62.8 °F /  17.1 °C 57.2 °F /  14 °C 30.1in /  1019.6hPa Calm     82% 0in /  0.0mm 0 W/m2
Juneau County Weather
Compliments of Weather Underground - 4 mb